This is the latest recevied weather packets stored in our database for station/object KY4EF. If no packets are shown the sender has not sent any weather packets the latest 10 day(s).
| Time | Temp. | Humidity | Pressure | Rain* | Wind** | Luminosity | Snow |
|---|---|---|---|---|---|---|---|
| 1778185059 | 15° C | 79% | 1011.3 hPa | 0 mm | - | 347 W/m² | - |
| 1778184756 | 16.67° C | 75% | 1011.4 hPa | 0 mm | - | 198 W/m² | - |
| 1778184452 | 16.67° C | 78% | 1011.4 hPa | 0 mm | - | 406 W/m² | - |
| 1778184148 | 17.78° C | 75% | 1011.5 hPa | 0 mm | - | 216 W/m² | - |
| 1778183844 | 17.78° C | 75% | 1011.4 hPa | 0 mm | - | 561 W/m² | - |
| 1778183536 | 17.22° C | 75% | 1011.4 hPa | 0 mm | - | 698 W/m² | - |
| 1778183233 | 17.22° C | 75% | 1011.4 hPa | 0 mm | - | 419 W/m² | - |
| 1778182929 | 18.33° C | 72% | 1011.5 hPa | 0 mm | - | 770 W/m² | - |
| 1778182626 | 17.78° C | 72% | 1011.4 hPa | 0 mm | - | 780 W/m² | - |
| 1778182323 | 18.89° C | 72% | 1011.3 hPa | 0 mm | - | 521 W/m² | - |
| 1778182019 | 18.33° C | 70% | 1011.1 hPa | 0 mm | - | 708 W/m² | - |
| 1778181716 | 18.33° C | 72% | 1011.6 hPa | 0 mm | - | 392 W/m² | - |
| 1778181411 | 20.56° C | 66% | 1011.5 hPa | 0 mm | - | 553 W/m² | - |
| 1778181109 | 20.56° C | 65% | 1011.2 hPa | 0 mm | - | 805 W/m² | - |
| 1778180806 | 19.44° C | 69% | 1011.1 hPa | 0 mm | - | 806 W/m² | - |
| 1778180505 | 20.56° C | 67% | 1011.2 hPa | 0 mm | - | 787 W/m² | - |
| 1778180203 | 20° C | 67% | 1011 hPa | 0 mm | - | 783 W/m² | - |
| 1778179899 | 19.44° C | 70% | 1011.1 hPa | 0 mm | - | 799 W/m² | - |
| 1778179597 | 17.22° C | 77% | 1011.2 hPa | 0 mm | - | 934 W/m² | - |
| 1778179295 | 17.22° C | 77% | 1011.5 hPa | 0 mm | - | 319 W/m² | - |
| 1778178991 | 16.67° C | 77% | 1011.5 hPa | 0 mm | - | 674 W/m² | - |
| 1778178687 | 16.67° C | 80% | 1011.7 hPa | 0 mm | - | 367 W/m² | - |
| 1778178384 | 16.67° C | 80% | 1011.7 hPa | 0 mm | - | 266 W/m² | - |
| 1778178080 | 16.11° C | 80% | 1011.5 hPa | 0 mm | - | 520 W/m² | - |
| 1778177777 | 16.11° C | 81% | 1011.6 hPa | 0 mm | - | 391 W/m² | - |
* Rain latest hour (hover to see other rain measurements)
** Current wind speed in m/s (hover to see current wind gust speed)